Time;durP1;ratioP1;P1;durP2;ratioP2;P2;SDS_P1;SDS_P2;PMS_P1;PMS_P2;Temp;Humidity;BMP_temperature;BMP_pressure;BME280_temperature;BME280_humidity;BME280_pressure;Samples;Min_cycle;Max_cycle;Signal;HPM_P1;HPM_P2
2021/05/30 00:02:04;;;;;;;9.77;4.67;;;;;;;;;;6077683;23;20190;-92
2021/05/30 00:05:12;;;;;;;10.50;5.37;;;;;;;;;;6094681;23;20158;-93
2021/05/30 00:08:18;;;;;;;21.60;7.70;;;;;;;;;;6096359;23;20167;-91
2021/05/30 00:11:23;;;;;;;12.47;5.10;;;;;;;;;;6098161;23;20194;-93
2021/05/30 00:14:31;;;;;;;12.97;5.60;;;;;;;;;;6082311;23;20166;-92
2021/05/30 00:17:36;;;;;;;19.27;5.80;;;;;;;;;;6099573;23;20223;-92
2021/05/30 00:20:42;;;;;;;72.87;7.17;;;;;;;;;;6098671;23;20187;-92
2021/05/30 00:23:47;;;;;;;25.97;6.37;;;;;;;;;;6097625;23;20187;-91
2021/05/30 00:26:52;;;;;;;24.07;6.00;;;;;;;;;;6081180;23;20203;-92
2021/05/30 00:29:56;;;;;;;20.77;5.83;;;;;;;;;;6081129;23;20182;-93
2021/05/30 00:33:02;;;;;;;14.33;5.70;;;;;;;;;;6081135;23;20198;-94
2021/05/30 00:36:08;;;;;;;28.87;6.57;;;;;;;;;;6082625;23;20196;-93
2021/05/30 00:39:21;;;;;;;22.90;5.90;;;;;;;;;;6080267;23;20157;-91
2021/05/30 00:42:25;;;;;;;29.57;5.63;;;;;;;;;;6079448;23;20197;-92
2021/05/30 00:45:30;;;;;;;13.80;5.03;;;;;;;;;;6079264;23;20158;-92
2021/05/30 00:48:34;;;;;;;21.13;6.50;;;;;;;;;;6079902;23;20190;-91
2021/05/30 00:51:40;;;;;;;23.23;5.40;;;;;;;;;;6079690;23;20282;-92
2021/05/30 00:54:45;;;;;;;41.37;5.07;;;;;;;;;;6078483;23;20175;-93
2021/05/30 00:57:50;;;;;;;25.73;5.17;;;;;;;;;;6078550;23;20175;-91
2021/05/30 01:00:54;;;;;;;17.23;5.70;;;;;;;;;;6078559;23;20208;-91
2021/05/30 01:03:59;;;;;;;22.33;5.53;;;;;;;;;;6079855;23;20166;-92
2021/05/30 01:07:05;;;;;;;23.87;6.00;;;;;;;;;;6079536;23;20175;-91
2021/05/30 01:10:18;;;;;;;30.47;5.43;;;;;;;;;;6077993;23;20187;-92
2021/05/30 01:13:24;;;;;;;9.57;4.47;;;;;;;;;;6078679;23;20175;-93
2021/05/30 01:16:29;;;;;;;7.27;4.73;;;;;;;;;;6078054;23;20215;-92
2021/05/30 01:19:34;;;;;;;9.10;4.80;;;;;;;;;;6079156;23;20166;-92
2021/05/30 01:22:41;;;;;;;15.83;4.57;;;;;;;;;;6063925;23;20178;-92
2021/05/30 01:25:48;;;;;;;89.47;6.77;;;;;;;;;;6078064;23;20166;-91
2021/05/30 01:28:53;;;;;;;17.20;5.33;;;;;;;;;;6062993;23;20158;-91
2021/05/30 01:31:58;;;;;;;40.63;5.77;;;;;;;;;;6061155;23;20678;-92
2021/05/30 01:35:03;;;;;;;46.40;5.80;;;;;;;;;;6077584;23;20167;-91
2021/05/30 01:38:07;;;;;;;33.07;6.90;;;;;;;;;;6078122;23;20174;-93
2021/05/30 01:41:13;;;;;;;19.43;5.23;;;;;;;;;;6078513;23;20170;-92
2021/05/30 01:44:17;;;;;;;48.47;5.83;;;;;;;;;;6060955;23;20652;-93
2021/05/30 01:47:22;;;;;;;26.17;5.33;;;;;;;;;;6079161;23;20162;-91
2021/05/30 01:50:27;;;;;;;18.53;5.20;;;;;;;;;;6062331;23;20175;-92
2021/05/30 01:53:36;;;;;;;23.80;5.13;;;;;;;;;;6080621;23;20227;-92
2021/05/30 01:56:57;;;;;;;27.77;5.20;;;;;;;;;;6079646;23;20619;-92
2021/05/30 02:00:02;;;;;;;11.63;4.63;;;;;;;;;;6078398;23;20170;-91
2021/05/30 02:03:17;;;;;;;10.37;4.27;;;;;;;;;;6079815;23;20679;-91
2021/05/30 02:06:25;;;;;;;19.13;5.10;;;;;;;;;;6079563;23;20190;-93
2021/05/30 02:09:30;;;;;;;11.90;4.27;;;;;;;;;;6063165;23;20178;-91
2021/05/30 02:12:36;;;;;;;8.27;4.17;;;;;;;;;;6080011;23;20186;-92
2021/05/30 02:15:43;;;;;;;26.57;4.80;;;;;;;;;;6079237;23;20187;-93
2021/05/30 02:18:47;;;;;;;6.97;3.77;;;;;;;;;;6080335;23;20173;-92
2021/05/30 02:21:53;;;;;;;42.67;4.93;;;;;;;;;;6081914;23;20193;-91
2021/05/30 02:24:57;;;;;;;16.23;4.70;;;;;;;;;;6080370;23;20207;-91
2021/05/30 02:28:02;;;;;;;55.83;5.87;;;;;;;;;;6075209;23;20190;-93
2021/05/30 02:31:09;;;;;;;28.77;4.93;;;;;;;;;;6100052;23;20174;-91
2021/05/30 02:34:14;;;;;;;6.23;3.90;;;;;;;;;;6080099;23;20166;-91
2021/05/30 02:37:19;;;;;;;12.63;4.17;;;;;;;;;;6095790;23;20223;-92
2021/05/30 02:40:24;;;;;;;10.03;4.80;;;;;;;;;;6079135;23;20272;-90
2021/05/30 02:43:29;;;;;;;12.10;4.80;;;;;;;;;;6079440;23;20202;-90
2021/05/30 02:46:34;;;;;;;11.80;4.57;;;;;;;;;;6080470;23;20170;-90
2021/05/30 02:49:38;;;;;;;10.63;4.73;;;;;;;;;;6094989;23;20215;-90
2021/05/30 02:52:43;;;;;;;13.73;5.13;;;;;;;;;;6082437;23;20167;-90
2021/05/30 02:55:48;;;;;;;14.77;5.60;;;;;;;;;;6096387;23;20258;-92
2021/05/30 02:58:54;;;;;;;14.73;5.90;;;;;;;;;;6082286;23;20176;-91
2021/05/30 03:01:58;;;;;;;12.67;6.30;;;;;;;;;;6097888;23;20362;-91
2021/05/30 03:05:03;;;;;;;13.33;6.17;;;;;;;;;;6096347;23;20175;-92
2021/05/30 03:08:08;;;;;;;10.80;5.87;;;;;;;;;;6095269;23;20251;-91
2021/05/30 03:11:15;;;;;;;7.73;4.93;;;;;;;;;;6095704;23;20183;-90
2021/05/30 03:14:22;;;;;;;8.97;5.27;;;;;;;;;;6095934;23;20222;-92
2021/05/30 03:17:26;;;;;;;9.57;5.00;;;;;;;;;;6096246;23;20174;-91
2021/05/30 03:20:31;;;;;;;7.03;4.30;;;;;;;;;;6095018;23;20175;-91
2021/05/30 03:23:37;;;;;;;11.13;5.00;;;;;;;;;;6078534;23;20212;-92
2021/05/30 03:26:42;;;;;;;10.33;5.10;;;;;;;;;;6096337;23;20186;-92
2021/05/30 03:29:48;;;;;;;11.40;4.67;;;;;;;;;;6079185;23;20173;-92
2021/05/30 03:32:53;;;;;;;11.77;5.87;;;;;;;;;;6078121;23;20259;-92
2021/05/30 03:36:01;;;;;;;11.17;4.73;;;;;;;;;;6077821;23;20642;-92
2021/05/30 03:39:07;;;;;;;9.87;5.30;;;;;;;;;;6078513;23;20174;-90
2021/05/30 03:42:14;;;;;;;14.30;4.90;;;;;;;;;;6078042;23;20218;-91
2021/05/30 03:45:19;;;;;;;9.67;5.33;;;;;;;;;;6080240;23;20622;-89
2021/05/30 03:48:24;;;;;;;8.53;4.93;;;;;;;;;;6080312;23;20176;-92
2021/05/30 03:51:28;;;;;;;11.00;5.60;;;;;;;;;;6061955;23;20178;-91
2021/05/30 03:54:33;;;;;;;10.63;4.90;;;;;;;;;;6078692;23;20610;-92
2021/05/30 03:57:37;;;;;;;15.83;5.20;;;;;;;;;;6078224;23;20165;-91
2021/05/30 04:01:08;;;;;;;22.80;5.30;;;;;;;;;;6082363;23;20155;-93
2021/05/30 04:04:13;;;;;;;8.47;5.00;;;;;;;;;;6081344;23;20170;-94
2021/05/30 04:11:37;;;;;;;21.07;5.03;;;;;;;;;;6085697;23;20180;-92
2021/05/30 04:14:43;;;;;;;16.90;4.93;;;;;;;;;;6083250;23;20219;-94
2021/05/30 04:17:48;;;;;;;10.80;4.67;;;;;;;;;;6079354;23;20274;-91
2021/05/30 04:20:55;;;;;;;9.87;5.07;;;;;;;;;;6080623;23;20179;-92
2021/05/30 04:24:00;;;;;;;19.90;4.70;;;;;;;;;;6078630;23;20222;-92
2021/05/30 04:27:05;;;;;;;18.97;4.83;;;;;;;;;;6079077;23;20209;-92
2021/05/30 04:30:11;;;;;;;15.97;5.27;;;;;;;;;;6080532;23;20170;-90
2021/05/30 04:33:15;;;;;;;11.60;5.30;;;;;;;;;;6080639;23;20169;-93
2021/05/30 04:36:21;;;;;;;10.37;4.73;;;;;;;;;;6079752;23;20178;-92
2021/05/30 04:39:31;;;;;;;8.00;5.13;;;;;;;;;;6081395;23;20153;-92
2021/05/30 04:42:37;;;;;;;12.10;5.03;;;;;;;;;;6080988;23;20194;-91
2021/05/30 04:45:42;;;;;;;13.67;5.47;;;;;;;;;;6080461;23;20245;-92
2021/05/30 04:48:47;;;;;;;11.97;5.33;;;;;;;;;;6080567;23;20165;-92
2021/05/30 04:51:52;;;;;;;14.87;5.23;;;;;;;;;;6080268;23;20174;-92
2021/05/30 04:54:57;;;;;;;14.67;5.47;;;;;;;;;;6081395;23;20194;-93
2021/05/30 04:58:02;;;;;;;9.80;5.60;;;;;;;;;;6079344;23;20219;-92
2021/05/30 05:01:08;;;;;;;7.60;4.70;;;;;;;;;;6081373;23;20199;-92
2021/05/30 05:04:12;;;;;;;12.13;5.63;;;;;;;;;;6064345;23;20234;-93
2021/05/30 05:07:18;;;;;;;8.37;4.90;;;;;;;;;;6080766;23;20223;-92
2021/05/30 05:10:23;;;;;;;7.23;4.97;;;;;;;;;;6080048;23;20158;-90
2021/05/30 05:13:28;;;;;;;10.40;5.53;;;;;;;;;;6085279;23;20174;-92
2021/05/30 05:16:32;;;;;;;10.90;5.13;;;;;;;;;;6079776;23;20167;-92
2021/05/30 05:19:38;;;;;;;9.77;4.80;;;;;;;;;;6064239;23;20179;-93
2021/05/30 05:22:46;;;;;;;8.57;5.20;;;;;;;;;;6082102;23;20203;-93
2021/05/30 05:25:51;;;;;;;8.23;4.67;;;;;;;;;;6080764;23;20315;-93
2021/05/30 05:28:56;;;;;;;7.30;4.60;;;;;;;;;;6080699;23;20199;-91
2021/05/30 05:32:01;;;;;;;10.70;5.07;;;;;;;;;;6078709;23;20242;-92
2021/05/30 05:35:08;;;;;;;6.33;4.70;;;;;;;;;;6080378;23;20158;-92
2021/05/30 05:38:14;;;;;;;10.70;4.83;;;;;;;;;;6064430;23;20175;-92
2021/05/30 05:41:18;;;;;;;8.43;4.67;;;;;;;;;;6079690;23;20167;-92
2021/05/30 05:44:23;;;;;;;8.17;4.87;;;;;;;;;;6079754;23;20210;-90
2021/05/30 05:47:28;;;;;;;9.43;4.93;;;;;;;;;;6081025;23;20223;-91
2021/05/30 05:50:32;;;;;;;7.53;4.70;;;;;;;;;;6080118;23;20236;-91
2021/05/30 05:53:39;;;;;;;6.80;4.50;;;;;;;;;;6079624;23;20192;-90
2021/05/30 05:56:43;;;;;;;7.75;4.20;;;;;;;;;;6080793;23;20174;-91
2021/05/30 05:59:48;;;;;;;9.33;4.50;;;;;;;;;;6062753;23;20174;-92
2021/05/30 06:02:52;;;;;;;8.83;5.13;;;;;;;;;;6080359;23;20245;-91
2021/05/30 06:05:57;;;;;;;8.40;4.80;;;;;;;;;;6080560;23;20211;-91
2021/05/30 06:09:03;;;;;;;7.95;4.38;;;;;;;;;;6081228;23;20199;-90
2021/05/30 06:12:08;;;;;;;6.63;4.40;;;;;;;;;;6081092;23;20262;-92
2021/05/30 06:15:14;;;;;;;9.25;5.05;;;;;;;;;;6065508;23;20170;-90
2021/05/30 06:18:22;;;;;;;7.70;4.28;;;;;;;;;;6084116;23;20170;-92
2021/05/30 06:21:27;;;;;;;7.57;4.30;;;;;;;;;;6064372;23;20178;-92
2021/05/30 06:24:35;;;;;;;10.75;4.90;;;;;;;;;;6079705;23;20182;-89
2021/05/30 06:27:40;;;;;;;8.63;4.30;;;;;;;;;;6089057;23;20198;-92
2021/05/30 06:30:45;;;;;;;7.85;4.10;;;;;;;;;;6097256;23;20205;-93
2021/05/30 06:33:49;;;;;;;7.38;3.85;;;;;;;;;;6098271;23;20222;-94
2021/05/30 06:36:55;;;;;;;7.78;4.32;;;;;;;;;;6097902;23;20226;-91
2021/05/30 06:40:01;;;;;;;9.13;3.70;;;;;;;;;;6098314;23;20219;-92
2021/05/30 06:43:06;;;;;;;8.30;4.28;;;;;;;;;;6081369;23;20250;-93
2021/05/30 06:46:11;;;;;;;9.65;3.83;;;;;;;;;;6098281;23;20461;-93
2021/05/30 06:49:16;;;;;;;6.13;4.00;;;;;;;;;;6096932;23;20171;-90
2021/05/30 06:52:20;;;;;;;11.18;4.45;;;;;;;;;;6098537;23;20178;-93
2021/05/30 06:55:26;;;;;;;7.65;4.45;;;;;;;;;;6082969;23;20171;-93
2021/05/30 06:58:31;;;;;;;9.13;3.88;;;;;;;;;;6098268;23;20174;-91
2021/05/30 07:01:36;;;;;;;5.50;3.65;;;;;;;;;;6098068;23;20171;-93
2021/05/30 07:04:41;;;;;;;7.63;4.25;;;;;;;;;;6097520;23;20512;-91
2021/05/30 07:07:45;;;;;;;6.43;3.67;;;;;;;;;;6098697;23;20170;-93
2021/05/30 07:10:51;;;;;;;10.00;3.97;;;;;;;;;;6081789;23;20618;-93
2021/05/30 07:13:56;;;;;;;7.65;3.45;;;;;;;;;;6097565;23;20177;-90
2021/05/30 12:13:37;;;;;;;3.10;2.13;;;;;;;;;;6170517;23;20212;-92
2021/05/30 12:16:42;;;;;;;4.43;2.47;;;;;;;;;;6185385;23;20219;-94
2021/05/30 12:19:47;;;;;;;5.75;2.40;;;;;;;;;;6200744;23;20168;-92
2021/05/30 12:22:52;;;;;;;5.75;2.47;;;;;;;;;;6200170;23;20195;-91
2021/05/30 12:26:00;;;;;;;4.30;2.55;;;;;;;;;;6202903;23;20174;-91
2021/05/30 12:29:06;;;;;;;7.28;2.80;;;;;;;;;;6201213;23;20171;-92
2021/05/30 12:32:17;;;;;;;4.45;2.88;;;;;;;;;;6185018;23;20196;-90
2021/05/30 12:35:44;;;;;;;5.60;2.45;;;;;;;;;;6202399;23;20204;-93
2021/05/30 12:38:59;;;;;;;4.75;2.80;;;;;;;;;;6204274;23;20172;-91
2021/05/30 12:42:06;;;;;;;6.07;2.75;;;;;;;;;;6186375;23;20196;-92
2021/05/30 12:45:30;;;;;;;5.25;2.63;;;;;;;;;;6211709;23;20176;-92
2021/05/30 12:48:48;;;;;;;5.47;2.63;;;;;;;;;;6211666;23;20196;-91
2021/05/30 12:52:00;;;;;;;4.68;2.47;;;;;;;;;;6207763;23;20200;-93
2021/05/30 12:55:07;;;;;;;4.40;2.50;;;;;;;;;;6205907;23;20486;-91
2021/05/30 12:58:21;;;;;;;5.57;2.55;;;;;;;;;;6202108;23;20253;-92
2021/05/30 13:01:27;;;;;;;3.58;2.30;;;;;;;;;;6203570;23;20196;-92
2021/05/30 13:04:34;;;;;;;10.93;3.08;;;;;;;;;;6199696;23;20213;-90
2021/05/30 13:07:39;;;;;;;4.95;3.05;;;;;;;;;;6185830;23;20204;-92
2021/05/30 13:10:55;;;;;;;4.97;2.55;;;;;;;;;;6202495;23;20298;-94
2021/05/30 13:14:00;;;;;;;3.78;2.28;;;;;;;;;;6194595;23;20211;-91
2021/05/30 13:17:18;;;;;;;4.40;2.10;;;;;;;;;;6216096;22;20200;-94
2021/05/30 13:20:25;;;;;;;3.28;2.22;;;;;;;;;;6216826;23;20224;-92
2021/05/30 13:23:31;;;;;;;4.18;2.30;;;;;;;;;;6199613;23;20240;-92
2021/05/30 13:26:45;;;;;;;5.00;2.38;;;;;;;;;;6200916;23;20168;-92
2021/05/30 13:30:07;;;;;;;7.05;2.55;;;;;;;;;;6198588;23;20168;-92
2021/05/30 13:33:12;;;;;;;3.78;2.50;;;;;;;;;;6198447;23;20179;-91
2021/05/30 13:36:19;;;;;;;5.28;2.60;;;;;;;;;;6202600;23;20171;-90
2021/05/30 13:39:23;;;;;;;3.65;2.38;;;;;;;;;;6197445;23;20168;-92
2021/05/30 13:42:28;;;;;;;4.88;2.13;;;;;;;;;;6196515;23;20211;-92
2021/05/30 13:45:33;;;;;;;4.82;2.00;;;;;;;;;;6194955;23;20215;-91
2021/05/30 13:48:38;;;;;;;4.85;2.20;;;;;;;;;;6198223;23;20652;-91
2021/05/30 13:51:44;;;;;;;5.20;1.70;;;;;;;;;;6212583;23;20172;-92
2021/05/30 13:54:49;;;;;;;2.58;1.83;;;;;;;;;;6195682;23;20241;-91
2021/05/30 13:57:53;;;;;;;8.85;1.73;;;;;;;;;;6196394;23;20168;-91
2021/05/30 14:00:58;;;;;;;4.10;1.60;;;;;;;;;;6215268;23;20175;-91
2021/05/30 14:04:03;;;;;;;2.08;1.45;;;;;;;;;;6197340;23;20199;-93
2021/05/30 14:07:09;;;;;;;2.65;1.98;;;;;;;;;;6196841;23;20172;-92
2021/05/30 14:10:14;;;;;;;3.28;1.90;;;;;;;;;;6195676;23;20252;-91
2021/05/30 14:13:19;;;;;;;3.13;2.00;;;;;;;;;;6198295;23;20194;-92
2021/05/30 14:16:23;;;;;;;3.85;1.70;;;;;;;;;;6197734;23;20690;-91
2021/05/30 14:19:28;;;;;;;5.30;1.75;;;;;;;;;;6197246;23;20171;-93
2021/05/30 14:22:34;;;;;;;5.25;1.90;;;;;;;;;;6197225;23;20195;-93
2021/05/30 14:25:42;;;;;;;2.92;1.75;;;;;;;;;;6196527;23;20215;-92
2021/05/30 14:28:47;;;;;;;2.50;1.70;;;;;;;;;;6196515;23;20201;-92
2021/05/30 14:31:52;;;;;;;2.63;1.65;;;;;;;;;;6198788;23;20179;-92
2021/05/30 14:34:57;;;;;;;6.28;1.73;;;;;;;;;;6217451;22;20175;-92
2021/05/30 14:38:03;;;;;;;2.55;1.50;;;;;;;;;;6198051;23;20167;-92
2021/05/30 14:41:09;;;;;;;4.00;1.70;;;;;;;;;;6199639;23;20217;-91
2021/05/30 14:44:14;;;;;;;2.83;1.63;;;;;;;;;;6198561;23;20199;-91
2021/05/30 14:47:20;;;;;;;4.50;1.95;;;;;;;;;;6199831;23;20198;-90
2021/05/30 14:50:28;;;;;;;2.83;1.77;;;;;;;;;;6201182;23;20195;-93
2021/05/30 14:53:35;;;;;;;3.28;1.75;;;;;;;;;;6200895;23;20196;-91
2021/05/30 14:56:40;;;;;;;2.28;1.67;;;;;;;;;;6200031;23;20271;-91
2021/05/30 14:59:46;;;;;;;1.92;1.42;;;;;;;;;;6179894;23;20211;-92
2021/05/30 15:02:52;;;;;;;4.60;1.67;;;;;;;;;;6198913;23;20203;-91
2021/05/30 15:05:59;;;;;;;3.08;1.48;;;;;;;;;;6216254;23;20212;-92
2021/05/30 15:09:05;;;;;;;3.50;1.70;;;;;;;;;;6201655;23;20195;-91
2021/05/30 15:12:10;;;;;;;2.13;1.35;;;;;;;;;;6197715;23;20187;-91
2021/05/30 15:15:17;;;;;;;3.10;1.50;;;;;;;;;;6200838;23;20219;-92
2021/05/30 15:18:25;;;;;;;3.25;1.60;;;;;;;;;;6172885;23;20300;-90
2021/05/30 15:21:29;;;;;;;3.70;2.42;;;;;;;;;;6168886;23;20173;-90
2021/05/30 15:24:36;;;;;;;7.43;4.38;;;;;;;;;;6170933;23;20200;-91
2021/05/30 15:27:43;;;;;;;3.08;1.50;;;;;;;;;;6169951;23;20197;-91
2021/05/30 15:30:49;;;;;;;1.45;1.23;;;;;;;;;;6170540;23;20171;-91
2021/05/30 15:33:53;;;;;;;2.30;1.40;;;;;;;;;;6169604;23;20172;-90
2021/05/30 15:36:59;;;;;;;2.70;1.58;;;;;;;;;;6171515;23;20219;-91
2021/05/30 15:40:05;;;;;;;3.30;1.23;;;;;;;;;;6169487;23;20407;-91
2021/05/30 15:43:10;;;;;;;2.33;1.40;;;;;;;;;;6171369;23;20216;-92
2021/05/30 15:46:18;;;;;;;3.70;1.67;;;;;;;;;;6173316;23;20208;-90
2021/05/30 15:49:23;;;;;;;5.43;1.35;;;;;;;;;;6151992;23;20173;-91
2021/05/30 15:52:28;;;;;;;2.83;1.58;;;;;;;;;;6167741;23;20234;-90
2021/05/30 15:55:34;;;;;;;4.28;1.80;;;;;;;;;;6166934;23;20176;-92
2021/05/30 15:58:38;;;;;;;3.53;1.50;;;;;;;;;;6168860;23;20180;-91
2021/05/30 16:01:43;;;;;;;2.72;1.70;;;;;;;;;;6173595;23;20165;-91
2021/05/30 16:04:48;;;;;;;2.83;1.42;;;;;;;;;;6168575;23;20188;-91
2021/05/30 16:07:59;;;;;;;2.97;1.80;;;;;;;;;;6171596;23;20204;-90
2021/05/30 16:11:05;;;;;;;4.18;2.30;;;;;;;;;;6169294;23;20180;-92
2021/05/30 16:14:11;;;;;;;3.83;1.70;;;;;;;;;;6170026;23;20226;-91
2021/05/30 16:17:16;;;;;;;2.90;1.80;;;;;;;;;;6177726;23;20190;-90
2021/05/30 16:20:20;;;;;;;5.88;1.80;;;;;;;;;;6183187;23;20231;-91
2021/05/30 16:23:25;;;;;;;2.40;1.60;;;;;;;;;;6201345;23;20264;-90
2021/05/30 16:26:31;;;;;;;3.80;1.58;;;;;;;;;;6197318;23;20209;-91
2021/05/30 16:29:39;;;;;;;2.50;1.77;;;;;;;;;;6198961;23;20583;-90
2021/05/30 16:32:46;;;;;;;9.20;6.00;;;;;;;;;;6181828;23;20171;-90
2021/05/30 16:35:50;;;;;;;1.90;1.40;;;;;;;;;;6199523;23;20168;-90
2021/05/30 16:38:55;;;;;;;2.65;1.42;;;;;;;;;;6198594;23;20173;-93
2021/05/30 16:42:01;;;;;;;2.30;1.65;;;;;;;;;;6198357;23;20259;-92
2021/05/30 16:45:06;;;;;;;2.63;1.50;;;;;;;;;;6183355;23;20211;-92
2021/05/30 16:48:11;;;;;;;2.05;1.50;;;;;;;;;;6181020;23;20199;-93
2021/05/30 16:51:16;;;;;;;2.67;1.60;;;;;;;;;;6197501;23;20171;-90
2021/05/30 16:54:20;;;;;;;4.85;1.70;;;;;;;;;;6198292;23;20168;-94
2021/05/30 16:57:26;;;;;;;5.00;1.60;;;;;;;;;;6195012;23;20228;-91
2021/05/30 17:00:31;;;;;;;2.05;1.60;;;;;;;;;;6181021;23;20212;-93
2021/05/30 17:03:36;;;;;;;2.58;1.65;;;;;;;;;;6181558;23;20562;-92
2021/05/30 17:06:40;;;;;;;2.03;1.50;;;;;;;;;;6181554;23;20207;-92
2021/05/30 17:09:52;;;;;;;2.60;1.38;;;;;;;;;;6197722;23;20247;-92
2021/05/30 17:12:58;;;;;;;2.22;1.77;;;;;;;;;;6198264;23;20176;-93
2021/05/30 17:16:05;;;;;;;2.28;1.65;;;;;;;;;;6166213;23;20216;-92
2021/05/30 17:19:10;;;;;;;2.70;1.58;;;;;;;;;;6199012;23;20188;-93
2021/05/30 17:22:14;;;;;;;7.30;1.73;;;;;;;;;;6199821;23;20195;-92
2021/05/30 17:25:21;;;;;;;7.32;1.70;;;;;;;;;;6197842;23;20584;-91
2021/05/30 17:28:27;;;;;;;6.55;3.05;;;;;;;;;;6201189;23;20175;-91
2021/05/30 17:31:31;;;;;;;4.88;2.03;;;;;;;;;;6199554;23;20230;-90
2021/05/30 17:34:36;;;;;;;3.80;1.83;;;;;;;;;;6200271;23;20560;-92
2021/05/30 17:37:41;;;;;;;4.70;1.85;;;;;;;;;;6200076;23;20186;-91
2021/05/30 17:40:46;;;;;;;2.10;1.63;;;;;;;;;;6182106;23;20196;-91
2021/05/30 17:43:52;;;;;;;2.78;1.65;;;;;;;;;;6198043;23;20669;-92
2021/05/30 17:46:57;;;;;;;3.92;1.83;;;;;;;;;;6198777;23;20213;-92
2021/05/30 17:50:02;;;;;;;3.70;2.17;;;;;;;;;;6198048;23;20163;-91
2021/05/30 17:53:06;;;;;;;5.07;2.47;;;;;;;;;;6197327;23;20192;-92
2021/05/30 17:56:11;;;;;;;6.78;1.63;;;;;;;;;;6198249;23;20224;-93
2021/05/30 17:59:16;;;;;;;2.47;1.45;;;;;;;;;;6195804;23;20167;-92
2021/05/30 18:02:21;;;;;;;4.97;1.85;;;;;;;;;;6195215;23;20179;-91
2021/05/30 18:05:29;;;;;;;5.70;1.80;;;;;;;;;;6197819;23;20176;-91
2021/05/30 18:08:34;;;;;;;5.53;2.00;;;;;;;;;;6198137;23;20179;-92
2021/05/30 18:11:40;;;;;;;4.35;1.55;;;;;;;;;;6197216;23;20196;-91
2021/05/30 18:14:48;;;;;;;4.40;1.65;;;;;;;;;;6195733;23;20303;-92
2021/05/30 18:17:52;;;;;;;4.10;1.67;;;;;;;;;;6197890;23;20187;-92
2021/05/30 18:20:57;;;;;;;2.17;1.67;;;;;;;;;;6199664;23;20163;-90
2021/05/30 18:24:02;;;;;;;2.55;1.85;;;;;;;;;;6197700;23;20315;-91
2021/05/30 18:27:07;;;;;;;2.20;1.55;;;;;;;;;;6195314;23;20653;-90
2021/05/30 18:30:13;;;;;;;3.05;2.03;;;;;;;;;;6197753;23;20179;-91
2021/05/30 18:33:18;;;;;;;11.73;1.80;;;;;;;;;;6198028;23;20172;-92
2021/05/30 18:36:23;;;;;;;2.70;2.13;;;;;;;;;;6197738;23;20179;-92
2021/05/30 18:39:28;;;;;;;3.38;1.90;;;;;;;;;;6195903;23;20216;-91
2021/05/30 18:42:33;;;;;;;4.30;2.35;;;;;;;;;;6195654;23;20211;-92
2021/05/30 18:45:39;;;;;;;5.18;2.03;;;;;;;;;;6194910;23;20171;-92
2021/05/30 18:48:43;;;;;;;7.55;2.20;;;;;;;;;;6195578;23;20191;-92
2021/05/30 18:51:54;;;;;;;4.82;2.75;;;;;;;;;;6198549;23;20163;-90
2021/05/30 18:54:58;;;;;;;4.13;2.00;;;;;;;;;;6196385;23;20212;-92
2021/05/30 18:58:03;;;;;;;3.17;1.90;;;;;;;;;;6196811;23;20188;-91
2021/05/30 19:01:09;;;;;;;4.03;2.22;;;;;;;;;;6194779;23;20163;-90
2021/05/30 19:04:13;;;;;;;4.90;2.40;;;;;;;;;;6197497;23;20259;-91
2021/05/30 19:07:18;;;;;;;3.45;2.20;;;;;;;;;;6197408;23;20167;-91
2021/05/30 19:10:23;;;;;;;3.95;2.15;;;;;;;;;;6200725;23;20168;-92
2021/05/30 19:13:28;;;;;;;3.72;2.17;;;;;;;;;;6202531;23;20173;-90
2021/05/30 19:16:33;;;;;;;7.38;3.10;;;;;;;;;;6201952;23;20175;-92
2021/05/30 19:19:39;;;;;;;6.00;2.70;;;;;;;;;;6202785;23;20152;-91
2021/05/30 19:22:44;;;;;;;6.45;2.97;;;;;;;;;;6199947;23;20227;-92
2021/05/30 19:25:49;;;;;;;4.28;2.40;;;;;;;;;;6204619;23;20175;-91
2021/05/30 19:28:55;;;;;;;3.38;2.33;;;;;;;;;;6202454;23;20176;-91
2021/05/30 19:32:01;;;;;;;4.43;2.75;;;;;;;;;;6203484;23;20232;-92
2021/05/30 19:35:06;;;;;;;3.88;2.47;;;;;;;;;;6202871;23;20255;-90
2021/05/30 19:38:13;;;;;;;3.60;2.28;;;;;;;;;;6202304;23;20215;-92
2021/05/30 19:41:19;;;;;;;4.63;2.30;;;;;;;;;;6202047;23;20208;-92
2021/05/30 19:44:24;;;;;;;5.00;2.70;;;;;;;;;;6203098;23;20203;-91
2021/05/30 19:47:31;;;;;;;5.22;3.15;;;;;;;;;;6202591;23;20191;-90
2021/05/30 19:50:38;;;;;;;7.38;3.72;;;;;;;;;;6202546;23;20171;-92
2021/05/30 19:53:44;;;;;;;7.43;2.95;;;;;;;;;;6203722;23;20493;-91
2021/05/30 19:56:48;;;;;;;3.65;2.63;;;;;;;;;;6204438;23;20188;-91
2021/05/30 19:59:54;;;;;;;5.72;2.60;;;;;;;;;;6205836;23;20168;-89
2021/05/30 20:03:00;;;;;;;4.40;2.53;;;;;;;;;;6203975;23;20267;-92
2021/05/30 20:06:05;;;;;;;8.93;2.30;;;;;;;;;;6204478;23;20196;-89
2021/05/30 20:09:10;;;;;;;5.10;2.58;;;;;;;;;;6201951;23;20158;-93
2021/05/30 20:12:15;;;;;;;7.72;2.90;;;;;;;;;;6200501;23;20217;-93
2021/05/30 20:15:22;;;;;;;7.13;3.70;;;;;;;;;;6201635;23;20172;-91
2021/05/30 20:18:28;;;;;;;7.20;3.38;;;;;;;;;;6201065;23;20215;-93
2021/05/30 20:21:33;;;;;;;8.80;3.90;;;;;;;;;;6201155;23;20167;-92
2021/05/30 20:24:38;;;;;;;8.18;4.40;;;;;;;;;;6199541;23;20217;-91
2021/05/30 20:27:47;;;;;;;8.30;3.60;;;;;;;;;;6201908;23;20163;-91
2021/05/30 20:30:53;;;;;;;5.05;3.08;;;;;;;;;;6201727;23;20335;-91
2021/05/30 20:33:58;;;;;;;8.73;3.10;;;;;;;;;;6197987;23;20188;-93
2021/05/30 20:37:04;;;;;;;4.22;2.72;;;;;;;;;;6197586;23;20244;-92
2021/05/30 20:40:09;;;;;;;8.52;4.38;;;;;;;;;;6198598;23;20167;-92
2021/05/30 20:43:14;;;;;;;11.20;4.82;;;;;;;;;;6197645;23;20246;-91
2021/05/30 20:46:19;;;;;;;8.20;3.60;;;;;;;;;;6198567;23;20204;-92
2021/05/30 20:49:25;;;;;;;7.47;3.17;;;;;;;;;;6198793;23;20236;-92
2021/05/30 20:52:30;;;;;;;4.35;2.53;;;;;;;;;;6197884;23;20168;-92
2021/05/30 20:55:34;;;;;;;5.13;2.78;;;;;;;;;;6179035;23;20239;-92
2021/05/30 20:58:39;;;;;;;12.30;5.97;;;;;;;;;;6199173;23;20179;-92
2021/05/30 21:01:43;;;;;;;4.20;3.03;;;;;;;;;;6196809;23;20256;-92
2021/05/30 21:04:49;;;;;;;9.32;3.30;;;;;;;;;;6196522;23;20219;-91
2021/05/30 21:07:54;;;;;;;11.50;4.55;;;;;;;;;;6198188;23;20167;-91
2021/05/30 21:10:59;;;;;;;6.38;3.20;;;;;;;;;;6196493;23;20200;-93
2021/05/30 21:14:06;;;;;;;8.70;3.58;;;;;;;;;;6198993;23;20196;-92
2021/05/30 21:17:10;;;;;;;7.82;3.08;;;;;;;;;;6199420;23;20211;-93
2021/05/30 21:20:16;;;;;;;6.05;3.47;;;;;;;;;;6182134;23;20171;-92
2021/05/30 21:23:21;;;;;;;6.28;3.17;;;;;;;;;;6181512;23;20195;-93
2021/05/30 21:26:26;;;;;;;6.93;3.40;;;;;;;;;;6179870;23;20168;-92
2021/05/30 21:29:31;;;;;;;6.60;3.38;;;;;;;;;;6197148;23;20168;-91
2021/05/30 21:32:35;;;;;;;6.85;3.38;;;;;;;;;;6197093;23;20260;-91
2021/05/30 21:35:40;;;;;;;6.18;3.38;;;;;;;;;;6179246;23;20167;-93
2021/05/30 21:38:46;;;;;;;8.30;2.90;;;;;;;;;;6196071;23;20211;-93
2021/05/30 21:41:50;;;;;;;6.07;3.58;;;;;;;;;;6195763;23;20279;-90
2021/05/30 21:44:59;;;;;;;10.65;3.42;;;;;;;;;;6177319;23;20567;-91
2021/05/30 21:48:04;;;;;;;8.70;3.70;;;;;;;;;;6178864;23;20179;-92
2021/05/30 21:51:10;;;;;;;5.78;3.15;;;;;;;;;;6178833;23;20167;-90
2021/05/30 21:54:15;;;;;;;5.43;3.40;;;;;;;;;;6182921;23;20152;-91
2021/05/30 21:57:20;;;;;;;7.47;4.32;;;;;;;;;;6177845;23;20172;-90
2021/05/30 22:00:25;;;;;;;9.27;4.53;;;;;;;;;;6179980;23;20228;-90
2021/05/30 22:04:00;;;;;;;6.82;3.60;;;;;;;;;;6195337;23;20251;-91
2021/05/30 22:07:07;;;;;;;6.57;3.70;;;;;;;;;;6200622;23;20211;-92
2021/05/30 22:10:13;;;;;;;6.35;3.67;;;;;;;;;;6180629;23;20172;-89
2021/05/30 22:13:19;;;;;;;6.30;3.80;;;;;;;;;;6179203;23;20174;-91
2021/05/30 22:16:24;;;;;;;5.57;3.40;;;;;;;;;;6198440;23;20167;-90
2021/05/30 22:19:28;;;;;;;5.15;3.40;;;;;;;;;;6201491;23;20172;-91
2021/05/30 22:22:35;;;;;;;17.75;3.75;;;;;;;;;;6180803;23;20171;-90
2021/05/30 22:25:40;;;;;;;7.78;3.90;;;;;;;;;;6181125;23;20171;-92
2021/05/30 22:28:44;;;;;;;7.38;4.15;;;;;;;;;;6183213;23;20179;-92
2021/05/30 22:31:49;;;;;;;15.32;8.35;;;;;;;;;;6200483;23;20175;-92
2021/05/30 22:34:54;;;;;;;6.97;4.20;;;;;;;;;;6182541;23;20265;-93
2021/05/30 22:38:00;;;;;;;9.25;3.95;;;;;;;;;;6196969;23;20156;-91
2021/05/30 22:41:04;;;;;;;11.55;4.00;;;;;;;;;;6195150;23;20242;-92
2021/05/30 22:44:10;;;;;;;6.55;4.53;;;;;;;;;;6177783;23;20191;-92
2021/05/30 22:47:14;;;;;;;7.15;4.60;;;;;;;;;;6178812;23;20168;-91
2021/05/30 22:50:19;;;;;;;8.52;4.97;;;;;;;;;;6177883;23;20179;-92
2021/05/30 22:53:25;;;;;;;8.02;4.43;;;;;;;;;;6177813;23;20171;-93
2021/05/30 22:56:30;;;;;;;7.47;4.40;;;;;;;;;;6197077;23;20200;-91
2021/05/30 22:59:35;;;;;;;10.05;4.55;;;;;;;;;;6184783;23;20191;-91
2021/05/30 23:02:40;;;;;;;7.30;4.45;;;;;;;;;;6186530;23;20203;-90
2021/05/30 23:05:45;;;;;;;9.97;4.70;;;;;;;;;;6186623;23;20248;-91
2021/05/30 23:08:52;;;;;;;9.97;5.33;;;;;;;;;;6184430;23;20171;-90
2021/05/30 23:11:57;;;;;;;8.47;4.47;;;;;;;;;;6185350;23;20199;-92
2021/05/30 23:15:02;;;;;;;10.67;4.67;;;;;;;;;;6183126;23;20151;-92
2021/05/30 23:18:07;;;;;;;10.77;4.90;;;;;;;;;;6185923;23;20183;-91
2021/05/30 23:21:12;;;;;;;9.27;4.77;;;;;;;;;;6200574;23;20654;-92
2021/05/30 23:24:17;;;;;;;10.30;4.20;;;;;;;;;;6198201;23;20203;-92
2021/05/30 23:27:22;;;;;;;7.97;4.15;;;;;;;;;;6198139;23;20236;-91
2021/05/30 23:30:27;;;;;;;6.63;4.10;;;;;;;;;;6196694;23;20190;-92